sensor_id;sensor_type;location;lat;lon;timestamp;pressure;altitude;pressure_sealevel;temperature;humidity
62617;BME280;62539;51.190;6.808;2023-01-31T00:01:27;102186.41;;;19.02;49.35
62617;BME280;62539;51.190;6.808;2023-01-31T00:03:56;102182.94;;;19.00;49.31
62617;BME280;62539;51.190;6.808;2023-01-31T00:08:55;102182.09;;;18.98;49.26
62617;BME280;62539;51.190;6.808;2023-01-31T00:11:23;102187.38;;;18.97;49.35
62617;BME280;62539;51.190;6.808;2023-01-31T00:13:51;102192.66;;;18.97;49.19
62617;BME280;62539;51.190;6.808;2023-01-31T00:16:18;102189.13;;;18.94;49.27
62617;BME280;62539;51.190;6.808;2023-01-31T00:18:45;102178.63;;;18.93;49.34
62617;BME280;62539;51.190;6.808;2023-01-31T00:21:23;102175.16;;;18.91;49.23
62617;BME280;62539;51.190;6.808;2023-01-31T00:23:51;102187.44;;;18.90;49.31
62617;BME280;62539;51.190;6.808;2023-01-31T00:26:26;102193.59;;;18.89;49.36
62617;BME280;62539;51.190;6.808;2023-01-31T00:28:54;102187.47;;;18.87;49.41
62617;BME280;62539;51.190;6.808;2023-01-31T00:31:23;102195.38;;;18.86;49.39
62617;BME280;62539;51.190;6.808;2023-01-31T00:33:51;102199.78;;;18.85;49.35
62617;BME280;62539;51.190;6.808;2023-01-31T00:36:23;102194.53;;;18.84;49.44
62617;BME280;62539;51.190;6.808;2023-01-31T00:38:59;102188.41;;;18.81;49.39
62617;BME280;62539;51.190;6.808;2023-01-31T00:41:27;102184.06;;;18.80;49.47
62617;BME280;62539;51.190;6.808;2023-01-31T00:43:54;102181.47;;;18.79;49.37
62617;BME280;62539;51.190;6.808;2023-01-31T00:46:20;102187.59;;;18.78;49.40
62617;BME280;62539;51.190;6.808;2023-01-31T00:48:46;102182.34;;;18.76;49.35
62617;BME280;62539;51.190;6.808;2023-01-31T00:51:12;102182.38;;;18.75;49.51
62617;BME280;62539;51.190;6.808;2023-01-31T00:53:38;102186.75;;;18.74;49.43
62617;BME280;62539;51.190;6.808;2023-01-31T00:56:10;102184.16;;;18.73;49.45
62617;BME280;62539;51.190;6.808;2023-01-31T00:58:37;102189.41;;;18.73;49.48
62617;BME280;62539;51.190;6.808;2023-01-31T01:01:06;102185.06;;;18.70;49.39
62617;BME280;62539;51.190;6.808;2023-01-31T01:03:32;102196.47;;;18.69;49.47
62617;BME280;62539;51.190;6.808;2023-01-31T01:05:58;102194.72;;;18.68;49.45
62617;BME280;62539;51.190;6.808;2023-01-31T01:08:23;102187.72;;;18.67;49.46
62617;BME280;62539;51.190;6.808;2023-01-31T01:10:49;102181.63;;;18.65;49.43
62617;BME280;62539;51.190;6.808;2023-01-31T01:13:14;102185.13;;;18.64;49.53
62617;BME280;62539;51.190;6.808;2023-01-31T01:15:39;102181.66;;;18.62;49.59
62617;BME280;62539;51.190;6.808;2023-01-31T01:18:05;102185.16;;;18.61;49.51
62617;BME280;62539;51.190;6.808;2023-01-31T01:20:30;102185.16;;;18.61;49.63
62617;BME280;62539;51.190;6.808;2023-01-31T01:22:56;102186.94;;;18.59;49.53
62617;BME280;62539;51.190;6.808;2023-01-31T01:25:21;102189.59;;;18.57;49.81
62617;BME280;62539;51.190;6.808;2023-01-31T01:27:46;102181.72;;;18.56;49.49
62617;BME280;62539;51.190;6.808;2023-01-31T01:30:12;102185.28;;;18.55;49.67
62617;BME280;62539;51.190;6.808;2023-01-31T01:32:37;102186.16;;;18.54;49.67
62617;BME280;62539;51.190;6.808;2023-01-31T01:35:03;102187.06;;;18.53;49.59
62617;BME280;62539;51.190;6.808;2023-01-31T01:37:28;102182.69;;;18.51;49.69
62617;BME280;62539;51.190;6.808;2023-01-31T01:39:54;102178.31;;;18.50;49.61
62617;BME280;62539;51.190;6.808;2023-01-31T01:42:22;102176.56;;;18.49;49.65
62617;BME280;62539;51.190;6.808;2023-01-31T01:44:57;102183.59;;;18.47;49.59
62617;BME280;62539;51.190;6.808;2023-01-31T01:50:30;102167.88;;;18.44;49.56
62617;BME280;62539;51.190;6.808;2023-01-31T01:53:01;102174.88;;;18.44;49.57
62617;BME280;62539;51.190;6.808;2023-01-31T01:55:36;102174.03;;;18.42;49.66
62617;BME280;62539;51.190;6.808;2023-01-31T01:58:32;102174.94;;;18.39;49.66
62617;BME280;62539;51.190;6.808;2023-01-31T02:01:09;102165.31;;;18.38;49.67
62617;BME280;62539;51.190;6.808;2023-01-31T02:03:38;102165.31;;;18.36;49.71
62617;BME280;62539;51.190;6.808;2023-01-31T02:06:05;102167.09;;;18.36;49.79
62617;BME280;62539;51.190;6.808;2023-01-31T02:08:35;102175.88;;;18.35;49.78
62617;BME280;62539;51.190;6.808;2023-01-31T02:11:12;102170.63;;;18.33;49.52
62617;BME280;62539;51.190;6.808;2023-01-31T02:13:46;102173.28;;;18.32;49.71
62617;BME280;62539;51.190;6.808;2023-01-31T02:16:14;102168.91;;;18.31;49.77
62617;BME280;62539;51.190;6.808;2023-01-31T02:18:39;102174.16;;;18.31;49.73
62617;BME280;62539;51.190;6.808;2023-01-31T02:30:38;102176.88;;;18.21;49.91
62617;BME280;62539;51.190;6.808;2023-01-31T02:41:37;102181.31;;;18.16;50.01
62617;BME280;62539;51.190;6.808;2023-01-31T02:44:35;102183.09;;;18.13;49.94
62617;BME280;62539;51.190;6.808;2023-01-31T02:47:45;102188.34;;;18.13;50.12
62617;BME280;62539;51.190;6.808;2023-01-31T02:53:43;102188.38;;;18.10;50.23
62617;BME280;62539;51.190;6.808;2023-01-31T02:56:18;102182.28;;;18.07;50.02
62617;BME280;62539;51.190;6.808;2023-01-31T02:58:59;102177.91;;;18.06;50.04
62617;BME280;62539;51.190;6.808;2023-01-31T03:01:32;102182.28;;;18.06;49.95
62617;BME280;62539;51.190;6.808;2023-01-31T03:04:04;102170.91;;;18.05;50.03
62617;BME280;62539;51.190;6.808;2023-01-31T03:09:13;102177.94;;;18.03;50.04
62617;BME280;62539;51.190;6.808;2023-01-31T03:15:08;102163.09;;;17.98;49.99
62617;BME280;62539;51.190;6.808;2023-01-31T03:18:00;102162.19;;;17.97;50.16
62617;BME280;62539;51.190;6.808;2023-01-31T03:20:57;102145.63;;;17.93;50.16
62617;BME280;62539;51.190;6.808;2023-01-31T03:23:31;102149.13;;;17.92;50.02
62617;BME280;62539;51.190;6.808;2023-01-31T03:26:03;102140.38;;;17.92;50.38
62617;BME280;62539;51.190;6.808;2023-01-31T03:28:33;102138.63;;;17.92;50.18
62617;BME280;62539;51.190;6.808;2023-01-31T03:31:18;102134.28;;;17.90;50.30
62617;BME280;62539;51.190;6.808;2023-01-31T03:33:50;102132.50;;;17.92;50.19
62617;BME280;62539;51.190;6.808;2023-01-31T03:36:27;102136.00;;;17.92;50.17
62617;BME280;62539;51.190;6.808;2023-01-31T03:39:28;102127.28;;;17.90;50.11
62617;BME280;62539;51.190;6.808;2023-01-31T03:42:02;102132.53;;;17.89;50.14
62617;BME280;62539;51.190;6.808;2023-01-31T03:45:11;102134.28;;;17.87;49.94
62617;BME280;62539;51.190;6.808;2023-01-31T03:47:50;102133.44;;;17.86;50.18
62617;BME280;62539;51.190;6.808;2023-01-31T03:50:22;102136.06;;;17.86;50.09
62617;BME280;62539;51.190;6.808;2023-01-31T03:55:45;102150.97;;;17.84;50.17
62617;BME280;62539;51.190;6.808;2023-01-31T03:58:19;102154.47;;;17.83;50.17
62617;BME280;62539;51.190;6.808;2023-01-31T04:00:51;102149.22;;;17.83;50.09
62617;BME280;62539;51.190;6.808;2023-01-31T04:03:31;102134.38;;;17.82;50.11
62617;BME280;62539;51.190;6.808;2023-01-31T04:06:03;102123.84;;;17.81;50.21
62617;BME280;62539;51.190;6.808;2023-01-31T04:08:30;102130.00;;;17.81;50.10
62617;BME280;62539;51.190;6.808;2023-01-31T04:10:57;102126.50;;;17.79;50.00
62617;BME280;62539;51.190;6.808;2023-01-31T04:13:24;102119.53;;;17.78;50.17
62617;BME280;62539;51.190;6.808;2023-01-31T04:15:49;102120.41;;;17.77;50.20
62617;BME280;62539;51.190;6.808;2023-01-31T04:18:15;102121.25;;;17.77;50.08
62617;BME280;62539;51.190;6.808;2023-01-31T04:20:40;102116.91;;;17.76;50.13
62617;BME280;62539;51.190;6.808;2023-01-31T04:23:06;102115.16;;;17.75;50.14
62617;BME280;62539;51.190;6.808;2023-01-31T04:25:31;102114.31;;;17.75;50.11
62617;BME280;62539;51.190;6.808;2023-01-31T04:27:56;102117.81;;;17.74;50.43
62617;BME280;62539;51.190;6.808;2023-01-31T04:30:22;102111.69;;;17.73;50.23
62617;BME280;62539;51.190;6.808;2023-01-31T04:32:47;102116.06;;;17.73;50.13
62617;BME280;62539;51.190;6.808;2023-01-31T04:35:13;102121.31;;;17.73;50.19
62617;BME280;62539;51.190;6.808;2023-01-31T04:37:38;102113.38;;;17.79;50.19
62617;BME280;62539;51.190;6.808;2023-01-31T04:40:04;102112.41;;;17.89;50.08
62617;BME280;62539;51.190;6.808;2023-01-31T04:42:30;102118.41;;;18.02;49.95
62617;BME280;62539;51.190;6.808;2023-01-31T04:44:55;102106.94;;;18.13;49.70
62617;BME280;62539;51.190;6.808;2023-01-31T04:47:20;102112.06;;;18.24;49.42
62617;BME280;62539;51.190;6.808;2023-01-31T04:49:46;102113.69;;;18.34;49.41
62617;BME280;62539;51.190;6.808;2023-01-31T04:52:11;102106.59;;;18.42;49.12
62617;BME280;62539;51.190;6.808;2023-01-31T04:54:37;102106.50;;;18.48;49.06
62617;BME280;62539;51.190;6.808;2023-01-31T04:57:02;102105.56;;;18.54;48.90
62617;BME280;62539;51.190;6.808;2023-01-31T04:59:28;102101.09;;;18.58;48.87
62617;BME280;62539;51.190;6.808;2023-01-31T05:01:54;102108.06;;;18.62;48.80
62617;BME280;62539;51.190;6.808;2023-01-31T05:04:19;102108.03;;;18.65;48.80
62617;BME280;62539;51.190;6.808;2023-01-31T05:06:46;102107.13;;;18.66;48.72
62617;BME280;62539;51.190;6.808;2023-01-31T05:09:11;102108.00;;;18.66;48.62
62617;BME280;62539;51.190;6.808;2023-01-31T05:11:37;102094.88;;;18.66;48.38
62617;BME280;62539;51.190;6.808;2023-01-31T05:14:02;102095.69;;;18.70;48.63
62617;BME280;62539;51.190;6.808;2023-01-31T05:16:28;102089.50;;;18.74;48.59
62617;BME280;62539;51.190;6.808;2023-01-31T05:18:53;102094.69;;;18.79;48.42
62617;BME280;62539;51.190;6.808;2023-01-31T05:21:19;102090.25;;;18.83;48.50
62617;BME280;62539;51.190;6.808;2023-01-31T05:23:44;102078.78;;;18.87;48.32
62617;BME280;62539;51.190;6.808;2023-01-31T05:26:10;102090.13;;;18.92;48.50
62617;BME280;62539;51.190;6.808;2023-01-31T05:28:35;102083.91;;;18.96;47.68
62617;BME280;62539;51.190;6.808;2023-01-31T05:31:03;102083.00;;;19.00;48.30
62617;BME280;62539;51.190;6.808;2023-01-31T05:33:31;102083.81;;;19.05;47.99
62617;BME280;62539;51.190;6.808;2023-01-31T05:35:57;102089.91;;;19.09;47.94
62617;BME280;62539;51.190;6.808;2023-01-31T05:38:23;102095.97;;;19.13;47.91
62617;BME280;62539;51.190;6.808;2023-01-31T05:40:49;102082.75;;;19.16;47.97
62617;BME280;62539;51.190;6.808;2023-01-31T05:43:15;102084.44;;;19.20;47.89
62617;BME280;62539;51.190;6.808;2023-01-31T05:45:41;102085.28;;;19.22;47.90
62617;BME280;62539;51.190;6.808;2023-01-31T05:48:07;102080.81;;;19.27;47.82
62617;BME280;62539;51.190;6.808;2023-01-31T05:50:33;102074.66;;;19.30;47.84
62617;BME280;62539;51.190;6.808;2023-01-31T05:52:59;102074.56;;;19.34;47.88
62617;BME280;62539;51.190;6.808;2023-01-31T05:55:25;102075.41;;;19.36;47.93
62617;BME280;62539;51.190;6.808;2023-01-31T05:57:55;102078.03;;;19.38;47.92
62617;BME280;62539;51.190;6.808;2023-01-31T06:00:21;102074.50;;;19.39;47.89
62617;BME280;62539;51.190;6.808;2023-01-31T06:02:47;102063.09;;;19.38;48.07
62617;BME280;62539;51.190;6.808;2023-01-31T06:05:13;102068.34;;;19.38;47.90
62617;BME280;62539;51.190;6.808;2023-01-31T06:07:39;102063.97;;;19.39;48.28
62617;BME280;62539;51.190;6.808;2023-01-31T06:10:07;102053.44;;;19.39;48.13
62617;BME280;62539;51.190;6.808;2023-01-31T06:12:34;102049.03;;;19.41;48.00
62617;BME280;62539;51.190;6.808;2023-01-31T06:15:00;102043.72;;;19.43;48.03
62617;BME280;62539;51.190;6.808;2023-01-31T06:17:25;102035.81;;;19.44;47.86
62617;BME280;62539;51.190;6.808;2023-01-31T06:19:51;102034.03;;;19.45;47.86
62617;BME280;62539;51.190;6.808;2023-01-31T06:22:17;102038.41;;;19.46;48.13
62617;BME280;62539;51.190;6.808;2023-01-31T06:24:43;102041.03;;;19.47;48.17
62617;BME280;62539;51.190;6.808;2023-01-31T06:27:09;102042.75;;;19.48;48.21
62617;BME280;62539;51.190;6.808;2023-01-31T06:29:34;102044.50;;;19.49;48.02
62617;BME280;62539;51.190;6.808;2023-01-31T06:32:00;102047.97;;;19.51;48.11
62617;BME280;62539;51.190;6.808;2023-01-31T06:34:25;102054.06;;;19.53;48.03
62617;BME280;62539;51.190;6.808;2023-01-31T06:36:51;102058.44;;;19.54;48.07
62617;BME280;62539;51.190;6.808;2023-01-31T06:39:16;102050.50;;;19.56;47.99
62617;BME280;62539;51.190;6.808;2023-01-31T06:41:42;102068.91;;;19.58;48.06
62617;BME280;62539;51.190;6.808;2023-01-31T06:44:07;102072.38;;;19.60;48.80
62617;BME280;62539;51.190;6.808;2023-01-31T06:46:33;102069.72;;;19.61;48.08
62617;BME280;62539;51.190;6.808;2023-01-31T06:48:58;102073.19;;;19.63;48.10
62617;BME280;62539;51.190;6.808;2023-01-31T06:51:24;102078.44;;;19.63;48.03
62617;BME280;62539;51.190;6.808;2023-01-31T06:53:49;102066.16;;;19.64;48.24
62617;BME280;62539;51.190;6.808;2023-01-31T06:56:18;102066.19;;;19.62;48.37
62617;BME280;62539;51.190;6.808;2023-01-31T06:58:44;102079.34;;;19.62;48.18
62617;BME280;62539;51.190;6.808;2023-01-31T07:01:12;102078.44;;;19.63;48.27
62617;BME280;62539;51.190;6.808;2023-01-31T07:03:38;102070.56;;;19.63;48.46
62617;BME280;62539;51.190;6.808;2023-01-31T07:06:05;102068.81;;;19.64;48.26
62617;BME280;62539;51.190;6.808;2023-01-31T07:08:32;102077.56;;;19.64;48.70
62617;BME280;62539;51.190;6.808;2023-01-31T07:10:58;102075.81;;;19.65;48.46
62617;BME280;62539;51.190;6.808;2023-01-31T07:13:25;102069.66;;;19.64;48.32
62617;BME280;62539;51.190;6.808;2023-01-31T07:15:51;102074.03;;;19.65;48.39
62617;BME280;62539;51.190;6.808;2023-01-31T07:18:16;102078.38;;;19.68;48.69
62617;BME280;62539;51.190;6.808;2023-01-31T07:20:42;102079.22;;;19.68;48.55
62617;BME280;62539;51.190;6.808;2023-01-31T07:23:08;102073.06;;;19.69;48.77
62617;BME280;62539;51.190;6.808;2023-01-31T07:25:34;102068.66;;;19.72;48.76
62617;BME280;62539;51.190;6.808;2023-01-31T07:28:00;102067.00;;;19.66;45.31
62617;BME280;62539;51.190;6.808;2023-01-31T07:30:27;102053.06;;;19.61;46.64
62617;BME280;62539;51.190;6.808;2023-01-31T07:32:53;102050.38;;;19.62;47.32
62617;BME280;62539;51.190;6.808;2023-01-31T07:35:19;102041.53;;;19.66;47.55
62617;BME280;62539;51.190;6.808;2023-01-31T07:37:45;102043.22;;;19.71;47.73
62617;BME280;62539;51.190;6.808;2023-01-31T07:40:13;102044.88;;;19.75;47.72
62617;BME280;62539;51.190;6.808;2023-01-31T07:42:39;102043.09;;;19.77;48.06
62617;BME280;62539;51.190;6.808;2023-01-31T07:45:06;102038.72;;;19.77;47.86
62617;BME280;62539;51.190;6.808;2023-01-31T07:47:35;102063.25;;;19.78;47.89
62617;BME280;62539;51.190;6.808;2023-01-31T07:50:00;102051.84;;;19.79;47.82
62617;BME280;62539;51.190;6.808;2023-01-31T07:52:26;102052.72;;;19.79;48.22
62617;BME280;62539;51.190;6.808;2023-01-31T07:54:51;102040.44;;;19.78;47.85
62617;BME280;62539;51.190;6.808;2023-01-31T07:57:17;102038.66;;;19.79;48.05
62617;BME280;62539;51.190;6.808;2023-01-31T07:59:43;102045.66;;;19.81;48.06
62617;BME280;62539;51.190;6.808;2023-01-31T08:02:12;102053.50;;;19.83;47.99
62617;BME280;62539;51.190;6.808;2023-01-31T08:05:00;102051.72;;;19.85;47.83
62617;BME280;62539;51.190;6.808;2023-01-31T08:07:27;102059.56;;;19.88;48.05
62617;BME280;62539;51.190;6.808;2023-01-31T08:09:53;102042.81;;;19.92;47.98
62617;BME280;62539;51.190;6.808;2023-01-31T08:12:19;102037.50;;;19.95;47.92
62617;BME280;62539;51.190;6.808;2023-01-31T08:14:45;102035.69;;;19.97;48.12
62617;BME280;62539;51.190;6.808;2023-01-31T08:17:10;102029.53;;;19.98;48.09
62617;BME280;62539;51.190;6.808;2023-01-31T08:19:36;102031.25;;;20.00;47.85
62617;BME280;62539;51.190;6.808;2023-01-31T08:22:03;102023.38;;;20.00;48.03
62617;BME280;62539;51.190;6.808;2023-01-31T08:24:30;102018.09;;;20.00;48.14
62617;BME280;62539;51.190;6.808;2023-01-31T08:26:57;102028.63;;;20.00;48.00
62617;BME280;62539;51.190;6.808;2023-01-31T08:29:22;102028.63;;;20.01;48.11
62617;BME280;62539;51.190;6.808;2023-01-31T08:31:49;102023.31;;;20.03;48.05
62617;BME280;62539;51.190;6.808;2023-01-31T08:34:15;102005.69;;;20.06;48.02
62617;BME280;62539;51.190;6.808;2023-01-31T08:36:41;102004.72;;;20.09;48.01
62617;BME280;62539;51.190;6.808;2023-01-31T08:39:07;102007.34;;;20.10;48.01
62617;BME280;62539;51.190;6.808;2023-01-31T08:41:34;102007.28;;;20.14;48.04
62617;BME280;62539;51.190;6.808;2023-01-31T08:44:01;102007.22;;;20.15;48.13
62617;BME280;62539;51.190;6.808;2023-01-31T08:46:37;102005.50;;;20.14;48.17
62617;BME280;62539;51.190;6.808;2023-01-31T08:49:04;102007.31;;;20.12;48.10
62617;BME280;62539;51.190;6.808;2023-01-31T08:51:31;102012.63;;;20.09;48.06
62617;BME280;62539;51.190;6.808;2023-01-31T08:53:56;102010.00;;;20.09;48.17
62617;BME280;62539;51.190;6.808;2023-01-31T08:56:22;101996.81;;;20.09;47.99
62617;BME280;62539;51.190;6.808;2023-01-31T08:58:50;102017.84;;;20.12;48.15
62617;BME280;62539;51.190;6.808;2023-01-31T09:01:18;102010.84;;;20.11;48.25
62617;BME280;62539;51.190;6.808;2023-01-31T09:03:46;102009.09;;;20.10;48.19
62617;BME280;62539;51.190;6.808;2023-01-31T09:06:20;102006.50;;;20.08;48.10
62617;BME280;62539;51.190;6.808;2023-01-31T09:08:46;101999.50;;;20.07;48.32
62617;BME280;62539;51.190;6.808;2023-01-31T09:11:13;101992.50;;;20.06;48.25
62617;BME280;62539;51.190;6.808;2023-01-31T09:13:44;101981.09;;;20.06;48.02
62617;BME280;62539;51.190;6.808;2023-01-31T09:16:12;101974.97;;;20.05;47.97
62617;BME280;62539;51.190;6.808;2023-01-31T09:18:38;101955.66;;;20.05;48.01
62617;BME280;62539;51.190;6.808;2023-01-31T09:21:06;101953.91;;;20.04;48.17
62617;BME280;62539;51.190;6.808;2023-01-31T09:23:43;101953.06;;;20.03;47.89
62617;BME280;62539;51.190;6.808;2023-01-31T09:26:10;101952.19;;;20.03;48.07
62617;BME280;62539;51.190;6.808;2023-01-31T09:28:36;101953.91;;;20.04;48.05
62617;BME280;62539;51.190;6.808;2023-01-31T09:31:04;101954.81;;;20.03;47.92
62617;BME280;62539;51.190;6.808;2023-01-31T09:33:33;101956.56;;;20.04;48.01
62617;BME280;62539;51.190;6.808;2023-01-31T09:36:04;101950.44;;;20.02;47.89
62617;BME280;62539;51.190;6.808;2023-01-31T09:38:35;101955.75;;;20.00;47.88
62617;BME280;62539;51.190;6.808;2023-01-31T09:41:13;101957.56;;;19.98;47.71
62617;BME280;62539;51.190;6.808;2023-01-31T09:46:41;101934.84;;;19.94;47.79
62617;BME280;62539;51.190;6.808;2023-01-31T09:49:17;101939.25;;;19.92;47.69
62617;BME280;62539;51.190;6.808;2023-01-31T09:51:52;101944.53;;;19.90;47.79
62617;BME280;62539;51.190;6.808;2023-01-31T09:54:28;101951.59;;;19.90;47.74
62617;BME280;62539;51.190;6.808;2023-01-31T09:57:25;101948.94;;;19.88;47.68
62617;BME280;62539;51.190;6.808;2023-01-31T10:00:10;101965.66;;;19.87;47.78
62617;BME280;62539;51.190;6.808;2023-01-31T10:05:31;101948.19;;;19.83;47.73
62617;BME280;62539;51.190;6.808;2023-01-31T10:10:49;101939.44;;;19.81;47.67
62617;BME280;62539;51.190;6.808;2023-01-31T10:13:33;101933.41;;;19.77;47.59
62617;BME280;62539;51.190;6.808;2023-01-31T10:19:04;101926.41;;;19.75;47.63
62617;BME280;62539;51.190;6.808;2023-01-31T10:21:45;101926.47;;;19.72;47.63
62617;BME280;62539;51.190;6.808;2023-01-31T10:24:21;101925.56;;;19.73;47.59
62617;BME280;62539;51.190;6.808;2023-01-31T10:26:56;101904.50;;;19.73;47.45
62617;BME280;62539;51.190;6.808;2023-01-31T10:29:38;101915.94;;;19.73;47.58
62617;BME280;62539;51.190;6.808;2023-01-31T10:32:24;101902.72;;;19.75;47.39
62617;BME280;62539;51.190;6.808;2023-01-31T10:35:00;101888.66;;;19.76;47.46
62617;BME280;62539;51.190;6.808;2023-01-31T10:37:38;101876.31;;;19.78;47.25
62617;BME280;62539;51.190;6.808;2023-01-31T10:40:24;101878.06;;;19.79;47.20
62617;BME280;62539;51.190;6.808;2023-01-31T10:43:02;101877.97;;;19.82;47.14
62617;BME280;62539;51.190;6.808;2023-01-31T10:45:36;101875.28;;;19.85;47.29
62617;BME280;62539;51.190;6.808;2023-01-31T10:48:15;101881.34;;;19.90;47.32
62617;BME280;62539;51.190;6.808;2023-01-31T10:56:33;101868.78;;;20.02;47.59
62617;BME280;62539;51.190;6.808;2023-01-31T10:59:04;101870.47;;;20.06;47.65
62617;BME280;62539;51.190;6.808;2023-01-31T11:01:36;101858.13;;;20.08;47.71
62617;BME280;62539;51.190;6.808;2023-01-31T11:04:01;101863.31;;;20.11;47.73
62617;BME280;62539;51.190;6.808;2023-01-31T11:06:45;101857.13;;;20.14;47.73
62617;BME280;62539;51.190;6.808;2023-01-31T11:09:11;101846.59;;;20.14;47.73
62617;BME280;62539;51.190;6.808;2023-01-31T11:11:55;101844.84;;;20.12;47.96
62617;BME280;62539;51.190;6.808;2023-01-31T11:14:25;101849.25;;;20.12;48.00
62617;BME280;62539;51.190;6.808;2023-01-31T11:17:00;101855.38;;;20.12;47.91
62617;BME280;62539;51.190;6.808;2023-01-31T11:19:52;101851.03;;;20.10;47.92
62617;BME280;62539;51.190;6.808;2023-01-31T11:22:29;101847.59;;;20.08;48.24
62617;BME280;62539;51.190;6.808;2023-01-31T11:24:58;101851.16;;;20.05;48.02
62617;BME280;62539;51.190;6.808;2023-01-31T11:27:36;101854.72;;;20.03;48.09
62617;BME280;62539;51.190;6.808;2023-01-31T11:30:05;101842.47;;;20.02;48.10
62617;BME280;62539;51.190;6.808;2023-01-31T11:32:42;101846.88;;;20.01;48.20
62617;BME280;62539;51.190;6.808;2023-01-31T11:37:48;101822.34;;;19.99;48.13
62617;BME280;62539;51.190;6.808;2023-01-31T11:40:35;101819.66;;;20.01;48.27
62617;BME280;62539;51.190;6.808;2023-01-31T11:43:05;101821.38;;;20.02;48.11
62617;BME280;62539;51.190;6.808;2023-01-31T11:45:56;101830.13;;;20.04;48.21
62617;BME280;62539;51.190;6.808;2023-01-31T11:48:26;101818.69;;;20.05;48.30
62617;BME280;62539;51.190;6.808;2023-01-31T11:50:59;101816.03;;;20.05;48.23
62617;BME280;62539;51.190;6.808;2023-01-31T11:58:37;101797.66;;;20.03;47.88
62617;BME280;62539;51.190;6.808;2023-01-31T12:01:11;101788.88;;;20.03;48.27
62617;BME280;62539;51.190;6.808;2023-01-31T12:03:46;101780.06;;;20.04;48.09
62617;BME280;62539;51.190;6.808;2023-01-31T12:06:37;101776.53;;;20.05;48.25
62617;BME280;62539;51.190;6.808;2023-01-31T12:09:18;101772.97;;;20.07;48.06
62617;BME280;62539;51.190;6.808;2023-01-31T12:11:57;101779.09;;;20.08;48.18
62617;BME280;62539;51.190;6.808;2023-01-31T12:14:39;101787.00;;;20.08;48.42
62617;BME280;62539;51.190;6.808;2023-01-31T12:17:11;101782.56;;;20.10;48.67
62617;BME280;62539;51.190;6.808;2023-01-31T12:20:08;101793.91;;;20.12;48.63
62617;BME280;62539;51.190;6.808;2023-01-31T12:23:05;101787.75;;;20.13;48.89
62617;BME280;62539;51.190;6.808;2023-01-31T12:25:50;101789.47;;;20.14;48.76
62617;BME280;62539;51.190;6.808;2023-01-31T12:34:17;101780.66;;;20.15;48.95
62617;BME280;62539;51.190;6.808;2023-01-31T12:37:16;101773.66;;;20.14;48.91
62617;BME280;62539;51.190;6.808;2023-01-31T12:40:13;101784.22;;;20.14;48.93
62617;BME280;62539;51.190;6.808;2023-01-31T12:46:07;101764.91;;;20.14;48.72
62617;BME280;62539;51.190;6.808;2023-01-31T12:48:41;101764.88;;;20.15;48.94
62617;BME280;62539;51.190;6.808;2023-01-31T12:51:41;101759.56;;;20.17;48.92
62617;BME280;62539;51.190;6.808;2023-01-31T12:59:55;101753.47;;;20.15;48.70
62617;BME280;62539;51.190;6.808;2023-01-31T13:02:41;101752.59;;;20.14;48.85
62617;BME280;62539;51.190;6.808;2023-01-31T13:05:30;101747.31;;;20.14;48.73
62617;BME280;62539;51.190;6.808;2023-01-31T13:10:47;101753.47;;;20.15;48.77
62617;BME280;62539;51.190;6.808;2023-01-31T13:14:04;101753.47;;;20.15;48.93
62617;BME280;62539;51.190;6.808;2023-01-31T13:16:40;101759.59;;;20.15;49.29
62617;BME280;62539;51.190;6.808;2023-01-31T13:22:10;101755.22;;;20.16;49.69
62617;BME280;62539;51.190;6.808;2023-01-31T13:24:44;101752.56;;;20.16;49.76
62617;BME280;62539;51.190;6.808;2023-01-31T13:27:36;101753.47;;;20.15;50.08
62617;BME280;62539;51.190;6.808;2023-01-31T13:30:15;101749.06;;;20.15;50.04
62617;BME280;62539;51.190;6.808;2023-01-31T13:32:48;101749.97;;;20.14;50.11
62617;BME280;62539;51.190;6.808;2023-01-31T13:35:25;101754.31;;;20.15;50.14
62617;BME280;62539;51.190;6.808;2023-01-31T13:37:59;101756.13;;;20.13;50.19
62617;BME280;62539;51.190;6.808;2023-01-31T13:40:39;101753.47;;;20.15;50.40
62617;BME280;62539;51.190;6.808;2023-01-31T13:43:13;101751.69;;;20.15;50.53
62617;BME280;62539;51.190;6.808;2023-01-31T13:45:46;101746.44;;;20.15;50.53
62617;BME280;62539;51.190;6.808;2023-01-31T13:48:41;101749.06;;;20.15;50.84
62617;BME280;62539;51.190;6.808;2023-01-31T13:51:33;101751.69;;;20.15;50.78
62617;BME280;62539;51.190;6.808;2023-01-31T13:54:22;101743.84;;;20.14;50.65
62617;BME280;62539;51.190;6.808;2023-01-31T13:56:52;101752.59;;;20.14;51.04
62617;BME280;62539;51.190;6.808;2023-01-31T13:59:26;101745.59;;;20.13;50.89
62617;BME280;62539;51.190;6.808;2023-01-31T14:01:55;101744.75;;;20.12;50.83
62617;BME280;62539;51.190;6.808;2023-01-31T14:04:26;101745.59;;;20.13;50.73
62617;BME280;62539;51.190;6.808;2023-01-31T14:09:34;101746.47;;;20.14;50.65
62617;BME280;62539;51.190;6.808;2023-01-31T14:14:49;101748.16;;;20.16;50.55
62617;BME280;62539;51.190;6.808;2023-01-31T14:22:20;101730.59;;;20.17;50.63
62617;BME280;62539;51.190;6.808;2023-01-31T14:27:44;101739.41;;;20.16;50.47
62617;BME280;62539;51.190;6.808;2023-01-31T14:56:53;101749.28;;;20.06;49.96
62617;BME280;62539;51.190;6.808;2023-01-31T15:04:59;101747.72;;;19.98;50.23
62617;BME280;62539;51.190;6.808;2023-01-31T15:07:34;101755.63;;;19.98;50.05
62617;BME280;62539;51.190;6.808;2023-01-31T15:10:02;101759.13;;;19.99;50.04
62617;BME280;62539;51.190;6.808;2023-01-31T15:12:55;101750.31;;;20.00;49.85
62617;BME280;62539;51.190;6.808;2023-01-31T15:15:37;101769.59;;;20.02;49.78
62617;BME280;62539;51.190;6.808;2023-01-31T15:18:13;101765.16;;;20.03;49.92
62617;BME280;62539;51.190;6.808;2023-01-31T15:20:46;101763.38;;;20.05;49.82